createdAt,value
2018-05-25T00:00:56.041Z,0
2018-05-25T00:01:55.471Z,0
2018-05-25T00:02:56.020Z,0
2018-05-25T00:03:55.239Z,0
2018-05-25T00:04:55.834Z,0
2018-05-25T00:05:56.116Z,0
2018-05-25T00:06:55.853Z,0
2018-05-25T00:07:55.844Z,0
2018-05-25T00:08:55.914Z,0
2018-05-25T00:09:55.925Z,0
2018-05-25T00:10:55.940Z,0
2018-05-25T00:11:56.257Z,0
2018-05-25T00:12:56.269Z,0
2018-05-25T00:13:56.011Z,0
2018-05-25T00:14:55.496Z,0
2018-05-25T00:15:56.354Z,0
2018-05-25T00:16:56.093Z,0
2018-05-25T00:17:56.120Z,0
2018-05-25T00:18:56.114Z,0
2018-05-25T00:19:55.886Z,0
2018-05-25T00:20:55.940Z,0
2018-05-25T00:21:56.459Z,0
2018-05-25T00:23:02.834Z,0
2018-05-25T00:23:56.519Z,0
2018-05-25T00:24:56.352Z,0
2018-05-25T00:25:56.573Z,0
2018-05-25T00:26:56.297Z,0
2018-05-25T00:27:56.076Z,0
2018-05-25T00:28:56.636Z,0
2018-05-25T00:29:56.090Z,0
2018-05-25T00:30:56.684Z,0
2018-05-25T00:31:56.413Z,0
2018-05-25T00:32:56.444Z,0
2018-05-25T00:33:56.700Z,0
2018-05-25T00:34:56.224Z,0
2018-05-25T00:35:56.309Z,0
2018-05-25T00:36:56.810Z,0
2018-05-25T00:37:56.284Z,0
2018-05-25T00:38:56.843Z,0
2018-05-25T00:39:56.585Z,0
2018-05-25T00:40:56.383Z,0
2018-05-25T00:41:56.894Z,0
2018-05-25T00:42:56.965Z,0
2018-05-25T00:43:56.977Z,0
2018-05-25T00:44:57.009Z,0
2018-05-25T00:45:56.486Z,0
2018-05-25T00:46:56.758Z,0
2018-05-25T00:47:57.068Z,0
2018-05-25T00:48:56.814Z,0
2018-05-25T00:49:57.094Z,0
2018-05-25T00:50:56.874Z,0
2018-05-25T00:51:56.871Z,0
2018-05-25T00:52:56.890Z,0
2018-05-25T00:53:56.909Z,0
2018-05-25T00:54:56.666Z,0
2018-05-25T00:55:57.020Z,0
2018-05-25T00:56:56.961Z,0
2018-05-25T00:57:57.295Z,0
2018-05-25T00:58:57.050Z,0
2018-05-25T00:59:56.485Z,0
2018-05-25T01:00:56.539Z,0
2018-05-25T01:01:57.072Z,0
2018-05-25T01:02:56.838Z,0
2018-05-25T01:03:57.431Z,0
2018-05-25T01:04:57.421Z,0
2018-05-25T01:05:57.451Z,0
2018-05-25T01:06:56.923Z,0
2018-05-25T01:07:57.499Z,0
2018-05-25T01:08:57.281Z,0
2018-05-25T01:09:56.992Z,0
2018-05-25T01:10:57.594Z,0
2018-05-25T01:11:57.023Z,0
2018-05-25T01:12:57.624Z,0
2018-05-25T01:13:57.398Z,0
2018-05-25T01:14:57.388Z,0
2018-05-25T01:15:57.118Z,0
2018-05-25T01:16:57.713Z,0
2018-05-25T01:17:57.438Z,0
2018-05-25T01:18:57.474Z,0
2018-05-25T01:19:57.773Z,0
2018-05-25T01:20:57.801Z,0
2018-05-25T01:21:57.802Z,0
2018-05-25T01:22:57.823Z,0
2018-05-25T01:23:57.854Z,0
2018-05-25T01:24:57.625Z,0
2018-05-25T01:25:57.651Z,0
2018-05-25T01:26:57.663Z,0
2018-05-25T01:27:57.973Z,0
2018-05-25T01:28:57.687Z,0
2018-05-25T01:29:58.012Z,0
2018-05-25T01:30:58.027Z,0
2018-05-25T01:31:58.018Z,0
2018-05-25T01:32:57.793Z,0
2018-05-25T01:33:57.807Z,0
2018-05-25T01:34:57.824Z,0
2018-05-25T01:35:57.874Z,0
2018-05-25T01:36:58.161Z,0
2018-05-25T01:37:58.159Z,0
2018-05-25T01:38:57.374Z,0
2018-05-25T01:39:57.950Z,0
2018-05-25T01:40:58.247Z,0
2018-05-25T01:41:57.724Z,0
2018-05-25T01:42:58.002Z,0
2018-05-25T01:43:58.304Z,0
2018-05-25T01:44:57.800Z,0
2018-05-25T01:45:58.348Z,0
2018-05-25T01:46:58.377Z,0
2018-05-25T01:47:57.844Z,0
2018-05-25T01:48:57.597Z,0
2018-05-25T01:49:58.151Z,0
2018-05-25T01:50:58.469Z,0
2018-05-25T01:51:58.501Z,0
2018-05-25T01:52:58.500Z,0
2018-05-25T01:53:58.555Z,0
2018-05-25T01:54:58.573Z,0
2018-05-25T01:55:58.283Z,0
2018-05-25T01:56:58.333Z,0
2018-05-25T01:57:58.363Z,0
2018-05-25T01:58:58.103Z,0
2018-05-25T01:59:58.403Z,0
2018-05-25T02:00:58.669Z,0
2018-05-25T02:01:58.704Z,0
2018-05-25T02:02:58.706Z,0
2018-05-25T02:03:58.221Z,0
2018-05-25T02:04:58.795Z,0
2018-05-25T02:05:57.696Z,0
2018-05-25T02:06:58.540Z,0
2018-05-25T02:07:58.856Z,0
2018-05-25T02:08:58.321Z,0
2018-05-25T02:09:58.619Z,0
2018-05-25T02:10:58.911Z,0
2018-05-25T02:11:58.714Z,0
2018-05-25T02:12:58.418Z,0
2018-05-25T02:13:58.688Z,0
2018-05-25T02:14:58.971Z,0
2018-05-25T02:15:58.743Z,0
2018-05-25T02:16:58.778Z,0
2018-05-25T02:17:58.528Z,0
2018-05-25T02:18:58.838Z,0
2018-05-25T02:19:59.111Z,0
2018-05-25T02:20:59.128Z,0
2018-05-25T02:21:58.868Z,0
2018-05-25T02:22:58.358Z,0
2018-05-25T02:23:58.649Z,0
2018-05-25T02:24:58.950Z,0
2018-05-25T02:25:59.266Z,0
2018-05-25T02:26:59.260Z,0
2018-05-25T02:27:59.273Z,0
2018-05-25T02:28:59.041Z,0
2018-05-25T02:29:58.779Z,0
2018-05-25T02:30:59.067Z,0
2018-05-25T02:31:59.387Z,0
2018-05-25T02:32:59.399Z,0
2018-05-25T02:33:59.158Z,0
2018-05-25T02:34:58.895Z,0
2018-05-25T02:35:59.200Z,0
2018-05-25T02:36:58.950Z,0
2018-05-25T02:37:59.475Z,0
2018-05-25T02:38:59.271Z,0
2018-05-25T02:39:59.557Z,0
2018-05-25T02:40:59.600Z,0
2018-05-25T02:41:59.330Z,0
2018-05-25T02:42:59.353Z,0
2018-05-25T02:43:59.341Z,0
2018-05-25T02:44:59.113Z,0
2018-05-25T02:45:59.659Z,0
2018-05-25T02:46:59.409Z,0
2018-05-25T02:47:59.480Z,0
2018-05-25T02:48:59.471Z,0
2018-05-25T02:49:58.958Z,0
2018-05-25T02:50:59.229Z,0
2018-05-25T02:51:59.847Z,0
2018-05-25T02:52:59.530Z,0
2018-05-25T02:53:59.593Z,0
2018-05-25T02:54:59.568Z,0
2018-05-25T02:55:59.632Z,0
2018-05-25T02:56:59.925Z,0
2018-05-25T02:57:59.659Z,0
2018-05-25T02:58:59.948Z,0
2018-05-25T02:59:59.978Z,0
2018-05-25T03:00:59.722Z,0
2018-05-25T03:01:59.488Z,0
2018-05-25T03:02:59.782Z,0
2018-05-25T03:04:00.078Z,0
2018-05-25T03:04:59.826Z,0
2018-05-25T03:06:00.226Z,0
2018-05-25T03:07:00.142Z,0
2018-05-25T03:07:59.910Z,0
2018-05-25T03:08:59.893Z,0
2018-05-25T03:09:59.945Z,0
2018-05-25T03:10:59.934Z,0
2018-05-25T03:11:59.962Z,0
2018-05-25T03:12:59.704Z,0
2018-05-25T03:14:00.283Z,0
2018-05-25T03:15:00.069Z,0
2018-05-25T03:16:00.303Z,0
2018-05-25T03:17:00.497Z,0
2018-05-25T03:17:59.884Z,0
2018-05-25T03:19:00.382Z,0
2018-05-25T03:19:59.903Z,0
2018-05-25T03:21:00.438Z,0
2018-05-25T03:22:00.169Z,0
2018-05-25T03:23:00.492Z,0
2018-05-25T03:24:00.188Z,0
2018-05-25T03:25:00.511Z,0
2018-05-25T03:26:00.276Z,0
2018-05-25T03:27:00.580Z,0
2018-05-25T03:28:00.586Z,0
2018-05-25T03:29:00.320Z,0
2018-05-25T03:30:00.645Z,0
2018-05-25T03:31:00.385Z,0
2018-05-25T03:32:00.414Z,0
2018-05-25T03:33:00.419Z,0
2018-05-25T03:34:00.710Z,0
2018-05-25T03:35:00.456Z,0
2018-05-25T03:36:00.787Z,0
2018-05-25T03:37:00.813Z,0
2018-05-25T03:38:00.557Z,0
2018-05-25T03:39:00.578Z,0
2018-05-25T03:40:00.610Z,0
2018-05-25T03:41:00.354Z,0
2018-05-25T03:42:00.885Z,0
2018-05-25T03:43:00.625Z,0
2018-05-25T03:44:00.952Z,0
2018-05-25T03:45:00.971Z,0
2018-05-25T03:46:00.938Z,0
2018-05-25T03:47:00.451Z,0
2018-05-25T03:48:01.014Z,0
2018-05-25T03:49:00.998Z,0
2018-05-25T03:50:00.801Z,0
2018-05-25T03:51:00.802Z,0
2018-05-25T03:52:00.306Z,0
2018-05-25T03:53:00.844Z,0
2018-05-25T03:54:00.866Z,0
2018-05-25T03:55:00.912Z,0
2018-05-25T03:56:00.924Z,0
2018-05-25T03:57:00.927Z,0
2018-05-25T03:58:00.752Z,0
2018-05-25T03:59:01.006Z,0
2018-05-25T04:00:01.041Z,0
2018-05-25T04:01:01.309Z,5
2018-05-25T04:02:01.034Z,5
2018-05-25T04:03:01.364Z,5
2018-05-25T04:04:01.346Z,5
2018-05-25T04:05:01.366Z,5
2018-05-25T04:06:01.129Z,5
2018-05-25T04:07:01.445Z,5
2018-05-25T04:08:00.932Z,0
2018-05-25T04:09:01.479Z,0
2018-05-25T04:10:01.199Z,0
2018-05-25T04:11:01.480Z,0
2018-05-25T04:12:01.292Z,0
2018-05-25T04:13:01.294Z,0
2018-05-25T04:14:01.601Z,5
2018-05-25T04:15:01.320Z,5
2018-05-25T04:16:01.332Z,5
2018-05-25T04:17:01.117Z,5
2018-05-25T04:18:01.431Z,5
2018-05-25T04:19:01.650Z,5
2018-05-25T04:20:01.137Z,5
2018-05-25T04:21:01.181Z,5
2018-05-25T04:22:01.773Z,5
2018-05-25T04:23:01.777Z,5
2018-05-25T04:24:01.853Z,5
2018-05-25T04:25:01.562Z,5
2018-05-25T04:26:01.571Z,5
2018-05-25T04:27:01.328Z,5
2018-05-25T04:28:02.271Z,5
2018-05-25T04:29:01.879Z,5
2018-05-25T04:30:01.669Z,5
2018-05-25T04:31:01.946Z,5
2018-05-25T04:32:01.712Z,5
2018-05-25T04:33:01.711Z,5
2018-05-25T04:34:02.054Z,5
2018-05-25T04:35:01.477Z,10
2018-05-25T04:36:01.780Z,5
2018-05-25T04:37:01.790Z,5
2018-05-25T04:38:01.522Z,5
2018-05-25T04:39:01.867Z,10
2018-05-25T04:40:02.106Z,10
2018-05-25T04:41:01.893Z,10
2018-05-25T04:42:01.915Z,10
2018-05-25T04:43:01.932Z,10
2018-05-25T04:44:02.245Z,10
2018-05-25T04:45:01.983Z,10
2018-05-25T04:46:02.004Z,10
2018-05-25T04:47:02.022Z,10
2018-05-25T04:48:02.017Z,10
2018-05-25T04:49:02.082Z,10
2018-05-25T04:50:01.813Z,10
2018-05-25T04:51:02.097Z,10
2018-05-25T04:52:01.864Z,10
2018-05-25T04:53:02.389Z,10
2018-05-25T04:54:02.451Z,5
2018-05-25T04:55:02.171Z,5
2018-05-25T04:56:02.226Z,5
2018-05-25T04:57:01.979Z,5
2018-05-25T04:58:01.977Z,5
2018-05-25T04:59:02.569Z,5
2018-05-25T05:00:02.326Z,5
2018-05-25T05:01:02.602Z,5
2018-05-25T05:02:02.631Z,5
2018-05-25T05:03:02.620Z,5
2018-05-25T05:04:02.648Z,5
2018-05-25T05:05:02.917Z,5
2018-05-25T05:06:02.411Z,5
2018-05-25T05:07:02.709Z,5
2018-05-25T05:08:02.709Z,10
2018-05-25T05:09:02.789Z,10
2018-05-25T05:10:02.503Z,10
2018-05-25T05:11:02.789Z,10
2018-05-25T05:12:01.999Z,10
2018-05-25T05:13:02.550Z,15
2018-05-25T05:14:02.302Z,15
2018-05-25T05:15:02.351Z,15
2018-05-25T05:16:02.646Z,15
2018-05-25T05:17:02.931Z,15
2018-05-25T05:18:02.703Z,10
2018-05-25T05:19:02.760Z,10
2018-05-25T05:20:02.824Z,10
2018-05-25T05:21:03.424Z,10
2018-05-25T05:22:03.049Z,15
2018-05-25T05:23:02.287Z,15
2018-05-25T05:24:02.813Z,15
2018-05-25T05:25:02.560Z,15
2018-05-25T05:26:03.140Z,15
2018-05-25T05:27:02.928Z,15
2018-05-25T05:28:02.897Z,15
2018-05-25T05:29:03.222Z,15
2018-05-25T05:30:02.982Z,15
2018-05-25T05:31:02.988Z,15
2018-05-25T05:32:03.033Z,15
2018-05-25T05:33:03.261Z,15
2018-05-25T05:34:03.091Z,15
2018-05-25T05:35:03.335Z,15
2018-05-25T05:36:03.118Z,10
2018-05-25T05:37:03.105Z,10
2018-05-25T05:38:02.867Z,10
2018-05-25T05:39:03.129Z,10
2018-05-25T05:40:03.180Z,10
2018-05-25T05:41:03.644Z,10
2018-05-25T05:42:03.496Z,10
2018-05-25T05:43:03.491Z,10
2018-05-25T05:44:02.740Z,10
2018-05-25T05:45:03.560Z,15
2018-05-25T05:46:03.299Z,15
2018-05-25T05:47:03.297Z,20
2018-05-25T05:48:03.080Z,20
2018-05-25T05:49:03.649Z,20
2018-05-25T05:50:03.390Z,20
2018-05-25T05:51:03.662Z,15
2018-05-25T05:52:03.724Z,15
2018-05-25T05:53:03.704Z,15
2018-05-25T05:54:03.471Z,15
2018-05-25T05:55:03.777Z,15
2018-05-25T05:56:02.718Z,15
2018-05-25T05:57:03.837Z,15
2018-05-25T05:58:03.557Z,15
2018-05-25T05:59:03.295Z,10
2018-05-25T06:00:03.591Z,10
2018-05-25T06:01:03.347Z,10
2018-05-25T06:02:03.912Z,10
2018-05-25T06:03:03.656Z,10
2018-05-25T06:04:03.434Z,10
2018-05-25T06:05:03.724Z,10
2018-05-25T06:06:04.026Z,10
2018-05-25T06:07:04.035Z,10
2018-05-25T06:08:03.776Z,10
2018-05-25T06:09:03.802Z,15
2018-05-25T06:10:03.269Z,15
2018-05-25T06:11:04.118Z,20
2018-05-25T06:12:03.850Z,20
2018-05-25T06:13:03.865Z,25
2018-05-25T06:14:03.904Z,25
2018-05-25T06:15:03.903Z,20
2018-05-25T06:16:05.146Z,20
2018-05-25T06:17:03.940Z,20
2018-05-25T06:18:03.657Z,25
2018-05-25T06:19:04.056Z,25
2018-05-25T06:20:03.925Z,25
2018-05-25T06:21:03.784Z,25
2018-05-25T06:22:04.367Z,25
2018-05-25T06:23:03.842Z,25
2018-05-25T06:24:04.083Z,25
2018-05-25T06:25:03.938Z,25
2018-05-25T06:26:04.152Z,25
2018-05-25T06:27:03.913Z,25
2018-05-25T06:28:03.997Z,25
2018-05-25T06:29:03.961Z,30
2018-05-25T06:30:04.286Z,30
2018-05-25T06:31:04.009Z,30
2018-05-25T06:32:04.328Z,30
2018-05-25T06:33:04.639Z,30
2018-05-25T06:34:04.081Z,30
2018-05-25T06:35:04.102Z,25
2018-05-25T06:36:04.681Z,25
2018-05-25T06:37:04.170Z,20
2018-05-25T06:38:04.447Z,15
2018-05-25T06:39:04.492Z,15
2018-05-25T06:40:04.208Z,10
2018-05-25T06:41:04.516Z,10
2018-05-25T06:42:04.756Z,10
2018-05-25T06:43:04.790Z,10
2018-05-25T06:44:04.031Z,10
2018-05-25T06:45:04.323Z,10
2018-05-25T06:46:04.358Z,10
2018-05-25T06:47:04.647Z,10
2018-05-25T06:48:04.137Z,10
2018-05-25T06:49:04.674Z,10
2018-05-25T06:50:04.497Z,10
2018-05-25T06:51:04.458Z,10
2018-05-25T06:52:04.746Z,10
2018-05-25T06:53:04.224Z,10
2018-05-25T06:54:04.524Z,10
2018-05-25T06:55:04.822Z,10
2018-05-25T06:56:05.096Z,10
2018-05-25T06:57:04.903Z,10
2018-05-25T06:58:05.160Z,10
2018-05-25T06:59:04.369Z,10
2018-05-25T07:00:04.673Z,10
2018-05-25T07:01:04.928Z,10
2018-05-25T07:02:04.955Z,10
2018-05-25T07:03:04.969Z,10
2018-05-25T07:04:05.208Z,10
2018-05-25T07:05:05.050Z,10
2018-05-25T07:06:05.335Z,10
2018-05-25T07:07:05.342Z,10
2018-05-25T07:08:05.398Z,10
2018-05-25T07:09:05.125Z,10
2018-05-25T07:10:04.871Z,10
2018-05-25T07:11:04.892Z,10
2018-05-25T07:12:04.640Z,10
2018-05-25T07:13:05.459Z,10
2018-05-25T07:14:04.987Z,10
2018-05-25T07:15:05.302Z,10
2018-05-25T07:16:05.040Z,10
2018-05-25T07:17:05.493Z,10
2018-05-25T07:18:05.609Z,10
2018-05-25T07:19:04.818Z,10
2018-05-25T07:20:05.395Z,10
2018-05-25T07:21:05.415Z,10
2018-05-25T07:22:05.432Z,10
2018-05-25T07:23:05.458Z,10
2018-05-25T07:24:05.226Z,10
2018-05-25T07:25:05.227Z,10
2018-05-25T07:26:05.772Z,10
2018-05-25T07:27:05.530Z,10
2018-05-25T07:28:05.558Z,10
2018-05-25T07:29:05.305Z,10
2018-05-25T07:30:05.877Z,10
2018-05-25T07:31:05.603Z,10
2018-05-25T07:32:05.632Z,10
2018-05-25T07:33:05.687Z,10
2018-05-25T07:34:05.697Z,10
2018-05-25T07:35:05.977Z,10
2018-05-25T07:36:05.728Z,10
2018-05-25T07:37:05.768Z,15
2018-05-25T07:38:05.811Z,15
2018-05-25T07:39:06.062Z,15
2018-05-25T07:40:05.867Z,15
2018-05-25T07:41:05.846Z,15
2018-05-25T07:42:05.885Z,15
2018-05-25T07:43:05.375Z,15
2018-05-25T07:44:06.201Z,15
2018-05-25T07:45:05.659Z,15
2018-05-25T07:46:05.726Z,15
2018-05-25T07:47:06.012Z,15
2018-05-25T07:48:06.328Z,15
2018-05-25T07:49:05.771Z,20
2018-05-25T07:50:06.093Z,25
2018-05-25T07:51:05.809Z,25
2018-05-25T07:52:06.404Z,20
2018-05-25T07:53:06.145Z,20
2018-05-25T07:54:06.430Z,20
2018-05-25T07:55:06.218Z,20
2018-05-25T07:56:06.231Z,20
2018-05-25T07:57:06.502Z,15
2018-05-25T07:58:06.249Z,15
2018-05-25T07:59:06.517Z,15
2018-05-25T08:00:06.101Z,15
2018-05-25T08:01:06.039Z,15
2018-05-25T08:02:06.082Z,15
2018-05-25T08:03:06.100Z,15
2018-05-25T08:04:05.860Z,15
2018-05-25T08:05:06.142Z,10
2018-05-25T08:06:06.440Z,15
2018-05-25T08:07:06.759Z,15
2018-05-25T08:08:06.748Z,15
2018-05-25T08:09:06.520Z,15
2018-05-25T08:10:06.293Z,15
2018-05-25T08:11:06.280Z,15
2018-05-25T08:12:06.754Z,15
2018-05-25T08:13:06.617Z,15
2018-05-25T08:14:06.635Z,20
2018-05-25T08:15:06.644Z,20
2018-05-25T08:16:06.442Z,20
2018-05-25T08:17:06.688Z,20
2018-05-25T08:18:06.463Z,25
2018-05-25T08:19:06.744Z,25
2018-05-25T08:20:07.027Z,20
2018-05-25T08:22:42.470Z,20
2018-05-25T08:22:52.088Z,20
2018-05-25T08:23:52.604Z,20
2018-05-25T08:24:52.630Z,20
2018-05-25T08:25:52.665Z,20
2018-05-25T08:26:52.673Z,20
2018-05-25T08:27:52.422Z,20
2018-05-25T08:28:52.741Z,15
2018-05-25T08:29:52.487Z,15
2018-05-25T08:30:52.512Z,15
2018-05-25T08:31:52.831Z,15
2018-05-25T08:32:52.814Z,15
2018-05-25T08:33:52.330Z,15
2018-05-25T08:34:52.867Z,15
2018-05-25T08:35:52.638Z,15
2018-05-25T08:36:52.937Z,15
2018-05-25T08:37:52.698Z,15
2018-05-25T08:38:52.952Z,15
2018-05-25T08:39:52.976Z,15
2018-05-25T08:40:52.773Z,20
2018-05-25T08:41:52.256Z,20
2018-05-25T08:42:52.792Z,20
2018-05-25T08:43:53.108Z,20
2018-05-25T08:44:53.132Z,20
2018-05-25T08:45:53.148Z,20
2018-05-25T08:46:52.625Z,20
2018-05-25T08:47:53.216Z,20
2018-05-25T08:48:52.964Z,20
2018-05-25T08:49:53.017Z,20
2018-05-25T08:50:53.294Z,20
2018-05-25T08:51:53.291Z,20
2018-05-25T08:52:53.034Z,20
2018-05-25T08:53:52.549Z,20
2018-05-25T08:54:53.103Z,20
2018-05-25T08:55:52.591Z,20
2018-05-25T08:56:53.146Z,20
2018-05-25T08:57:53.468Z,20
2018-05-25T08:58:53.499Z,20
2018-05-25T08:59:53.505Z,20
2018-05-25T09:00:53.260Z,20
2018-05-25T09:01:53.299Z,20
2018-05-25T09:02:53.025Z,20
2018-05-25T09:03:53.341Z,20
2018-05-25T09:04:52.808Z,20
2018-05-25T09:05:53.885Z,20
2018-05-25T09:06:53.947Z,20
2018-05-25T09:07:53.444Z,20
2018-05-25T09:08:53.749Z,20
2018-05-25T09:09:53.756Z,20
2018-05-25T09:10:53.758Z,20
2018-05-25T09:11:53.673Z,20
2018-05-25T09:12:53.844Z,25
2018-05-25T09:13:53.595Z,25
2018-05-25T09:14:53.612Z,25
2018-05-25T09:15:53.380Z,25
2018-05-25T09:16:53.412Z,25
2018-05-25T09:17:53.437Z,25
2018-05-25T09:18:53.722Z,25
2018-05-25T09:19:53.755Z,25
2018-05-25T09:20:54.042Z,25
2018-05-25T09:21:54.287Z,25
2018-05-25T09:22:54.101Z,25
2018-05-25T09:23:53.596Z,25
2018-05-25T09:24:53.900Z,25
2018-05-25T09:25:53.972Z,25
2018-05-25T09:26:53.889Z,25
2018-05-25T09:27:53.965Z,25
2018-05-25T09:28:53.730Z,25
2018-05-25T09:29:54.033Z,25
2018-05-25T09:30:54.130Z,25
2018-05-25T09:31:54.325Z,25
2018-05-25T09:32:54.077Z,25
2018-05-25T09:33:54.372Z,25
2018-05-25T09:34:54.475Z,25
2018-05-25T09:35:54.169Z,25
2018-05-25T09:36:54.486Z,25
2018-05-25T09:37:53.986Z,25
2018-05-25T09:38:54.531Z,25
2018-05-25T09:39:54.268Z,25
2018-05-25T09:40:54.315Z,25
2018-05-25T09:41:54.608Z,25
2018-05-25T09:42:54.644Z,25
2018-05-25T09:43:54.648Z,25
2018-05-25T09:44:54.692Z,25
2018-05-25T09:45:54.441Z,25
2018-05-25T09:46:54.752Z,25
2018-05-25T09:47:54.470Z,25
2018-05-25T09:48:54.070Z,25
2018-05-25T09:49:54.558Z,30
2018-05-25T09:50:54.578Z,30
2018-05-25T09:51:54.620Z,30
2018-05-25T09:52:54.365Z,30
2018-05-25T09:53:54.652Z,30
2018-05-25T09:54:54.965Z,30
2018-05-25T09:55:55.019Z,30
2018-05-25T09:56:54.496Z,30
2018-05-25T09:57:53.980Z,30
2018-05-25T09:58:54.830Z,30
2018-05-25T09:59:55.120Z,30
2018-05-25T10:00:55.117Z,30
2018-05-25T10:01:55.197Z,30
2018-05-25T10:02:54.910Z,30
2018-05-25T10:03:54.677Z,30
2018-05-25T10:04:54.981Z,30
2018-05-25T10:05:55.331Z,30
2018-05-25T10:06:55.286Z,30
2018-05-25T10:07:55.100Z,30
2018-05-25T10:08:55.343Z,30
2018-05-25T10:09:55.126Z,30
2018-05-25T10:10:55.431Z,35
2018-05-25T10:11:54.902Z,35
2018-05-25T10:12:55.182Z,35
2018-05-25T10:13:54.969Z,35
2018-05-25T10:14:55.269Z,35
2018-05-25T10:15:54.760Z,35
2018-05-25T10:16:55.354Z,35
2018-05-25T10:17:55.208Z,35
2018-05-25T10:18:55.084Z,35
2018-05-25T10:19:54.866Z,35
2018-05-25T10:20:55.669Z,35
2018-05-25T10:21:55.188Z,35
2018-05-25T10:22:55.221Z,35
2018-05-25T10:23:55.524Z,35
2018-05-25T10:24:55.522Z,35
2018-05-25T10:25:55.849Z,35
2018-05-25T10:26:55.911Z,40
2018-05-25T10:27:55.619Z,40
2018-05-25T10:28:55.874Z,45
2018-05-25T10:29:55.995Z,50
2018-05-25T10:30:55.731Z,55
2018-05-25T10:31:55.794Z,50
2018-05-25T10:32:56.013Z,45
2018-05-25T10:33:55.531Z,40
2018-05-25T10:34:55.808Z,35
2018-05-25T10:35:55.590Z,35
2018-05-25T10:36:55.908Z,35
2018-05-25T10:37:56.191Z,40
2018-05-25T10:38:56.244Z,40
2018-05-25T10:39:56.257Z,40
2018-05-25T10:40:56.332Z,40
2018-05-25T10:41:55.776Z,40
2018-05-25T10:42:55.805Z,40
2018-05-25T10:43:56.091Z,45
2018-05-25T10:44:56.145Z,55
2018-05-25T10:45:55.899Z,60
2018-05-25T10:46:56.268Z,65
2018-05-25T10:47:56.497Z,55
2018-05-25T10:48:55.440Z,50
2018-05-25T10:49:56.301Z,50
2018-05-25T10:50:56.064Z,40
2018-05-25T10:51:56.618Z,40
2018-05-25T10:52:56.633Z,35
2018-05-25T10:53:56.434Z,35
2018-05-25T10:54:56.143Z,45
2018-05-25T10:55:56.269Z,45
2018-05-25T10:56:56.756Z,45
2018-05-25T10:57:56.566Z,45
2018-05-25T10:58:56.323Z,45
2018-05-25T10:59:56.887Z,45
2018-05-25T11:00:56.607Z,45
2018-05-25T11:01:56.363Z,40
2018-05-25T11:02:56.970Z,40
2018-05-25T11:03:57.072Z,20
2018-05-25T11:04:57.022Z,20
2018-05-25T11:05:56.503Z,45
2018-05-25T11:06:57.133Z,45
2018-05-25T11:07:56.812Z,45
2018-05-25T11:08:56.586Z,45
2018-05-25T11:09:56.677Z,45
2018-05-25T11:10:57.240Z,45
2018-05-25T11:11:57.267Z,45
2018-05-25T11:12:56.725Z,45
2018-05-25T11:13:57.017Z,45
2018-05-25T11:14:57.338Z,45
2018-05-25T11:15:57.353Z,45
2018-05-25T11:16:57.094Z,45
2018-05-25T11:17:57.121Z,45
2018-05-25T11:18:57.198Z,45
2018-05-25T11:19:57.481Z,45
2018-05-25T11:20:57.328Z,45
2018-05-25T11:21:57.288Z,45
2018-05-25T11:22:57.327Z,45
2018-05-25T11:23:57.333Z,45
2018-05-25T11:24:57.082Z,45
2018-05-25T11:25:57.391Z,50
2018-05-25T11:26:57.822Z,50
2018-05-25T11:27:57.708Z,50
2018-05-25T11:28:57.506Z,50
2018-05-25T11:29:57.529Z,45
2018-05-25T11:30:57.049Z,25
2018-05-25T11:31:57.593Z,55
2018-05-25T11:32:57.598Z,55
2018-05-25T11:33:57.655Z,50
2018-05-25T11:34:57.709Z,25
2018-05-25T11:35:57.965Z,60
2018-05-25T11:36:57.760Z,40
2018-05-25T11:37:58.048Z,65
2018-05-25T11:38:57.824Z,60
2018-05-25T11:39:58.119Z,55
2018-05-25T11:40:58.162Z,55
2018-05-25T11:41:58.188Z,55
2018-05-25T11:42:57.948Z,55
2018-05-25T11:43:57.706Z,55
2018-05-25T11:44:58.301Z,55
2018-05-25T11:45:58.052Z,55
2018-05-25T11:46:58.096Z,55
2018-05-25T11:47:58.092Z,55
2018-05-25T11:48:58.140Z,55
2018-05-25T11:49:58.189Z,55
2018-05-25T11:50:58.463Z,60
2018-05-25T11:51:58.202Z,65
2018-05-25T11:52:58.297Z,70
2018-05-25T11:53:58.060Z,75
2018-05-25T11:54:58.352Z,80
2018-05-25T11:55:58.364Z,85
2018-05-25T11:56:58.414Z,85
2018-05-25T11:57:58.163Z,85
2018-05-25T11:58:58.448Z,80
2018-05-25T11:59:58.509Z,35
2018-05-25T12:00:58.258Z,35
2018-05-25T12:01:58.994Z,35
2018-05-25T12:02:58.579Z,35
2018-05-25T12:03:58.348Z,45
2018-05-25T12:04:58.679Z,40
2018-05-25T12:05:58.994Z,65
2018-05-25T12:06:58.729Z,65
2018-05-25T12:07:59.063Z,65
2018-05-25T12:08:59.066Z,65
2018-05-25T12:09:58.822Z,65
2018-05-25T12:10:59.116Z,65
2018-05-25T12:11:58.646Z,65
2018-05-25T12:12:58.390Z,65
2018-05-25T12:13:58.953Z,65
2018-05-25T12:14:59.259Z,65
2018-05-25T12:15:59.292Z,65
2018-05-25T12:16:59.346Z,65
2018-05-25T12:17:59.343Z,65
2018-05-25T12:18:59.397Z,65
2018-05-25T12:19:59.432Z,65
2018-05-25T12:20:59.458Z,65
2018-05-25T12:21:58.974Z,65
2018-05-25T12:22:59.027Z,65
2018-05-25T12:23:59.052Z,65
2018-05-25T12:24:59.571Z,65
2018-05-25T12:25:59.345Z,65
2018-05-25T12:26:59.657Z,65
2018-05-25T12:27:59.487Z,70
2018-05-25T12:28:59.186Z,70
2018-05-25T12:29:59.188Z,70
2018-05-25T12:30:59.809Z,75
2018-05-25T12:31:59.535Z,90
2018-05-25T12:32:59.324Z,90
2018-05-25T12:33:59.660Z,100
2018-05-25T12:34:59.942Z,105
2018-05-25T12:35:59.978Z,110
2018-05-25T12:36:59.992Z,95
2018-05-25T12:37:59.792Z,90
2018-05-25T12:39:00.042Z,80
2018-05-25T12:39:59.832Z,75
2018-05-25T12:40:59.876Z,70
2018-05-25T12:41:59.627Z,70
2018-05-25T12:42:59.926Z,70
2018-05-25T12:43:59.939Z,70
2018-05-25T12:45:00.028Z,70
2018-05-25T12:46:00.018Z,70
2018-05-25T12:47:00.350Z,70
2018-05-25T12:48:00.116Z,70
2018-05-25T12:49:00.401Z,70
2018-05-25T12:50:00.184Z,70
2018-05-25T12:51:00.177Z,70
2018-05-25T12:52:00.248Z,70
2018-05-25T12:53:00.264Z,70
2018-05-25T12:54:00.037Z,70
2018-05-25T12:55:00.298Z,70
2018-05-25T12:56:00.349Z,70
2018-05-25T12:57:00.661Z,70
2018-05-25T12:58:00.769Z,70
2018-05-25T12:59:00.764Z,75
2018-05-25T13:00:00.500Z,80
2018-05-25T13:01:00.529Z,55
2018-05-25T13:02:00.557Z,85
2018-05-25T13:03:00.675Z,45
2018-05-25T13:04:00.628Z,75
2018-05-25T13:05:00.688Z,35
2018-05-25T13:06:00.453Z,30
2018-05-25T13:07:00.996Z,40
2018-05-25T13:08:00.239Z,30
2018-05-25T13:09:00.808Z,75
2018-05-25T13:10:00.856Z,75
2018-05-25T13:11:00.631Z,75
2018-05-25T13:12:01.216Z,75
2018-05-25T13:13:01.234Z,75
2018-05-25T13:14:01.010Z,35
2018-05-25T13:15:01.006Z,25
2018-05-25T13:16:01.043Z,75
2018-05-25T13:17:00.813Z,75
2018-05-25T13:18:01.113Z,75
2018-05-25T13:19:01.187Z,75
2018-05-25T13:20:01.197Z,75
2018-05-25T13:21:01.514Z,75
2018-05-25T13:22:01.540Z,75
2018-05-25T13:23:01.394Z,75
2018-05-25T13:24:01.078Z,75
2018-05-25T13:25:01.075Z,80
2018-05-25T13:26:01.652Z,85
2018-05-25T13:27:01.182Z,90
2018-05-25T13:28:01.492Z,90
2018-05-25T13:29:01.491Z,70
2018-05-25T13:30:01.811Z,30
2018-05-25T13:31:01.046Z,30
2018-05-25T13:32:01.593Z,80
2018-05-25T13:33:01.618Z,80
2018-05-25T13:34:01.433Z,80
2018-05-25T13:35:01.712Z,80
2018-05-25T13:36:01.785Z,80
2018-05-25T13:37:01.763Z,80
2018-05-25T13:38:01.807Z,80
2018-05-25T13:39:01.830Z,80
2018-05-25T13:40:01.635Z,80
2018-05-25T13:41:02.218Z,75
2018-05-25T13:42:02.726Z,80
2018-05-25T13:43:01.715Z,80
2018-05-25T13:44:01.539Z,80
2018-05-25T13:45:01.597Z,80
2018-05-25T13:46:01.819Z,80
2018-05-25T13:47:01.877Z,80
2018-05-25T13:48:02.475Z,80
2018-05-25T13:49:02.183Z,80
2018-05-25T13:50:02.250Z,80
2018-05-25T13:51:02.288Z,80
2018-05-25T13:52:02.598Z,80
2018-05-25T13:53:02.103Z,80
2018-05-25T13:54:02.397Z,80
2018-05-25T13:55:02.675Z,80
2018-05-25T13:56:02.725Z,85
2018-05-25T13:57:02.223Z,90
2018-05-25T13:58:02.515Z,85
2018-05-25T13:59:02.546Z,95
2018-05-25T14:00:02.599Z,95
2018-05-25T14:01:02.899Z,90
2018-05-25T14:02:02.923Z,85
2018-05-25T14:03:02.703Z,80
2018-05-25T14:04:02.983Z,85
2018-05-25T14:05:02.743Z,85
2018-05-25T14:06:02.830Z,85
2018-05-25T14:07:03.099Z,85
2018-05-25T14:08:02.566Z,85
2018-05-25T14:09:02.921Z,85
2018-05-25T14:10:02.949Z,85
2018-05-25T14:11:02.980Z,80
2018-05-25T14:12:02.731Z,80
2018-05-25T14:13:03.064Z,75
2018-05-25T14:14:03.379Z,75
2018-05-25T14:15:03.124Z,45
2018-05-25T14:16:02.908Z,30
2018-05-25T14:17:02.924Z,35
2018-05-25T14:18:02.959Z,35
2018-05-25T14:19:03.271Z,80
2018-05-25T14:20:03.304Z,75
2018-05-25T14:21:03.362Z,80
2018-05-25T14:22:03.105Z,80
2018-05-25T14:23:03.699Z,80
2018-05-25T14:24:03.474Z,80
2018-05-25T14:25:03.472Z,80
2018-05-25T14:26:03.530Z,80
2018-05-25T14:27:03.806Z,85